Time;durP1;ratioP1;P1;durP2;ratioP2;P2;SDS_P1;SDS_P2;PMS_P1;PMS_P2;Temp;Humidity;BMP_temperature;BMP_pressure;BME280_temperature;BME280_humidity;BME280_pressure;Samples;Min_cycle;Max_cycle;Signal;HPM_P1;HPM_P2
2021/10/17 00:00:35;;;;;;;30.50;17.98;;;6.80;93.00;;;;;;6249958;23;20318;-71
2021/10/17 00:03:01;;;;;;;31.83;17.37;;;6.80;94.10;;;;;;6249951;23;20008;-71
2021/10/17 00:05:29;;;;;;;28.45;18.20;;;6.80;94.10;;;;;;6250377;23;20054;-72
2021/10/17 00:07:55;;;;;;;38.83;20.73;;;6.80;93.60;;;;;;6249320;23;20081;-71
2021/10/17 00:10:25;;;;;;;30.27;17.48;;;6.80;94.40;;;;;;6249779;23;20008;-71
2021/10/17 00:12:51;;;;;;;36.35;19.95;;;6.80;94.20;;;;;;6247729;23;20004;-72
2021/10/17 00:15:18;;;;;;;30.40;16.83;;;6.80;94.70;;;;;;6249956;23;19996;-71
2021/10/17 00:17:45;;;;;;;32.13;17.38;;;6.80;94.30;;;;;;6250146;23;19996;-72
2021/10/17 00:20:12;;;;;;;33.35;18.30;;;6.80;94.10;;;;;;6249853;23;20000;-72
2021/10/17 00:22:39;;;;;;;34.13;19.45;;;6.90;94.40;;;;;;6249383;23;20014;-70
2021/10/17 00:25:07;;;;;;;36.22;18.98;;;7.00;95.00;;;;;;6250079;23;20557;-70
2021/10/17 00:27:33;;;;;;;33.60;16.40;;;7.00;95.70;;;;;;6248304;23;20377;-71
2021/10/17 00:29:58;;;;;;;29.00;15.48;;;6.90;96.00;;;;;;6250107;23;20004;-71
2021/10/17 00:32:27;;;;;;;30.30;16.52;;;6.80;95.40;;;;;;6250103;23;20014;-71
2021/10/17 00:34:53;;;;;;;32.45;17.52;;;6.90;95.70;;;;;;6249346;23;20004;-70
2021/10/17 00:37:19;;;;;;;30.52;17.48;;;6.90;95.60;;;;;;6249706;23;20007;-72
2021/10/17 00:39:46;;;;;;;34.53;17.90;;;6.90;95.00;;;;;;6249461;23;20000;-72
2021/10/17 00:42:15;;;;;;;29.55;16.77;;;7.00;95.60;;;;;;6249202;23;20385;-71
2021/10/17 00:44:43;;;;;;;27.73;16.08;;;7.00;95.30;;;;;;6247811;23;20008;-70
2021/10/17 00:47:09;;;;;;;25.60;14.70;;;7.00;95.50;;;;;;6222993;23;20004;-72
2021/10/17 00:49:34;;;;;;;31.20;15.88;;;7.00;95.30;;;;;;6249119;23;20378;-72
2021/10/17 00:52:03;;;;;;;28.23;17.15;;;7.10;94.80;;;;;;6249985;23;20032;-72
2021/10/17 00:54:29;;;;;;;32.42;16.80;;;7.10;95.00;;;;;;6248766;23;20000;-70
2021/10/17 00:57:00;;;;;;;26.30;15.95;;;7.10;95.20;;;;;;6249949;23;20084;-69
2021/10/17 00:59:26;;;;;;;29.50;16.67;;;7.10;95.50;;;;;;6247863;23;20008;-70
2021/10/17 01:01:51;;;;;;;25.92;14.40;;;7.10;95.20;;;;;;6248952;23;19996;-69
2021/10/17 01:04:17;;;;;;;25.63;14.98;;;7.20;94.60;;;;;;6248624;23;20030;-70
2021/10/17 01:06:43;;;;;;;26.15;16.48;;;7.20;95.40;;;;;;6249416;23;20050;-71
2021/10/17 01:09:08;;;;;;;28.45;16.45;;;7.10;95.60;;;;;;6249261;23;20007;-71
2021/10/17 01:11:42;;;;;;;27.27;16.45;;;7.20;95.30;;;;;;6249491;23;20345;-71
2021/10/17 01:14:09;;;;;;;22.70;13.48;;;7.20;95.30;;;;;;6247872;23;20005;-72
2021/10/17 01:16:37;;;;;;;30.67;16.15;;;7.30;95.30;;;;;;6249526;23;19996;-70
2021/10/17 01:19:02;;;;;;;25.85;15.23;;;7.30;95.60;;;;;;6248935;23;19992;-72
2021/10/17 01:21:37;;;;;;;22.73;14.43;;;7.30;95.80;;;;;;6249036;23;20015;-71
2021/10/17 01:24:03;;;;;;;26.88;15.10;;;7.40;95.70;;;;;;6248956;23;20000;-70
2021/10/17 01:26:29;;;;;;;22.83;13.98;;;7.40;96.20;;;;;;6249214;23;20019;-71
2021/10/17 01:28:55;;;;;;;23.15;14.32;;;7.40;96.50;;;;;;6247756;23;20449;-72
2021/10/17 01:31:20;;;;;;;23.80;14.38;;;7.40;96.50;;;;;;6248891;23;20031;-71
2021/10/17 01:33:49;;;;;;;23.48;13.38;;;7.40;96.20;;;;;;6222043;23;20008;-71
2021/10/17 01:36:16;;;;;;;26.48;15.23;;;7.40;96.40;;;;;;6249108;23;19996;-71
2021/10/17 01:38:41;;;;;;;20.33;12.57;;;7.30;96.50;;;;;;6248640;23;19997;-71
2021/10/17 01:41:07;;;;;;;23.30;13.27;;;7.30;96.00;;;;;;6248583;23;20012;-71
2021/10/17 01:43:33;;;;;;;22.70;14.00;;;7.40;96.00;;;;;;6247267;23;20091;-71
2021/10/17 01:45:58;;;;;;;23.42;13.18;;;7.40;96.70;;;;;;6249139;23;20000;-71
2021/10/17 01:48:27;;;;;;;21.17;12.48;;;7.40;96.60;;;;;;6249208;23;20001;-71
2021/10/17 01:50:53;;;;;;;20.10;12.45;;;7.40;96.30;;;;;;6248832;23;20010;-72
2021/10/17 01:53:18;;;;;;;28.70;13.93;;;7.40;96.30;;;;;;6248883;23;20036;-71
2021/10/17 01:55:44;;;;;;;19.45;12.52;;;7.50;96.30;;;;;;6248767;23;20004;-72
2021/10/17 01:58:09;;;;;;;19.90;12.60;;;7.60;96.50;;;;;;6247498;23;20258;-72
2021/10/17 02:00:35;;;;;;;22.30;13.10;;;7.80;96.90;;;;;;6222541;23;20004;-72
2021/10/17 02:03:01;;;;;;;18.23;12.15;;;7.90;97.50;;;;;;6248637;23;20008;-71
2021/10/17 02:05:26;;;;;;;18.63;12.48;;;8.00;98.00;;;;;;6248898;23;20007;-71
2021/10/17 02:07:52;;;;;;;18.52;11.23;;;8.00;98.00;;;;;;6249027;23;20007;-71
2021/10/17 02:10:18;;;;;;;19.25;11.00;;;8.00;98.00;;;;;;6247944;23;20004;-71
2021/10/17 02:12:46;;;;;;;19.30;10.88;;;8.10;98.00;;;;;;6247895;23;20011;-71
2021/10/17 02:15:12;;;;;;;15.00;10.90;;;8.20;98.00;;;;;;6251079;23;19998;-71
2021/10/17 02:17:40;;;;;;;25.73;13.48;;;8.30;98.00;;;;;;6251185;23;20024;-71
2021/10/17 02:20:09;;;;;;;24.63;14.63;;;8.30;98.00;;;;;;6251087;23;20064;-72
2021/10/17 02:22:35;;;;;;;23.17;13.63;;;8.00;98.00;;;;;;6224303;23;20421;-72
2021/10/17 02:25:00;;;;;;;18.30;10.98;;;7.90;98.00;;;;;;6224557;23;20057;-71
2021/10/17 02:27:26;;;;;;;19.85;10.60;;;7.90;98.00;;;;;;6249189;23;20004;-72
2021/10/17 02:29:52;;;;;;;19.58;10.98;;;8.00;98.00;;;;;;6224182;23;20052;-71
2021/10/17 02:32:17;;;;;;;16.70;9.77;;;8.10;98.00;;;;;;6223997;23;20405;-70
2021/10/17 02:34:43;;;;;;;16.58;10.65;;;8.10;98.00;;;;;;6251164;23;19997;-72
2021/10/17 02:37:09;;;;;;;16.77;10.38;;;8.20;98.00;;;;;;6251014;23;20003;-72
2021/10/17 02:39:35;;;;;;;17.20;10.82;;;8.30;98.00;;;;;;6250842;23;20004;-71
2021/10/17 02:42:00;;;;;;;15.23;10.35;;;8.30;98.00;;;;;;6223800;23;20089;-72
2021/10/17 02:44:26;;;;;;;16.42;9.20;;;8.40;98.00;;;;;;6249369;23;20000;-71
2021/10/17 02:46:52;;;;;;;17.35;9.77;;;8.50;98.00;;;;;;6250794;23;20007;-72
2021/10/17 02:49:17;;;;;;;16.10;8.80;;;8.50;98.00;;;;;;6250635;23;20266;-71
2021/10/17 02:51:43;;;;;;;15.52;9.57;;;8.50;98.00;;;;;;6250746;23;20019;-71
2021/10/17 02:54:08;;;;;;;13.55;8.65;;;8.50;98.00;;;;;;6250480;23;20015;-71
2021/10/17 02:56:34;;;;;;;15.05;8.77;;;8.50;98.00;;;;;;6250648;23;20072;-72
2021/10/17 02:59:00;;;;;;;13.75;8.30;;;8.50;98.00;;;;;;6222717;23;20056;-71
2021/10/17 03:01:25;;;;;;;15.52;8.77;;;8.40;98.00;;;;;;6250837;23;20013;-72
2021/10/17 03:03:51;;;;;;;12.85;8.50;;;8.40;98.00;;;;;;6250885;23;20361;-71
2021/10/17 03:06:24;;;;;;;14.82;8.50;;;8.40;98.00;;;;;;6250272;23;20239;-71
2021/10/17 03:08:53;;;;;;;14.67;9.07;;;8.30;98.00;;;;;;6250812;23;20075;-72
2021/10/17 03:11:19;;;;;;;13.75;9.10;;;8.20;98.00;;;;;;6250577;23;20007;-71
2021/10/17 03:13:45;;;;;;;15.88;8.60;;;8.10;98.00;;;;;;6222512;23;20069;-70
2021/10/17 03:16:10;;;;;;;13.05;8.35;;;8.00;98.00;;;;;;6250581;23;20000;-71
2021/10/17 03:18:36;;;;;;;19.88;9.10;;;7.90;98.00;;;;;;6250500;23;19996;-72
2021/10/17 03:21:02;;;;;;;15.82;9.30;;;7.70;98.00;;;;;;6250710;23;20258;-72
2021/10/17 03:23:28;;;;;;;15.07;8.65;;;7.50;98.00;;;;;;6249971;23;20392;-72
2021/10/17 03:25:55;;;;;;;12.73;8.02;;;7.30;98.00;;;;;;6249560;23;20004;-71
2021/10/17 03:28:24;;;;;;;13.55;8.40;;;7.00;98.00;;;;;;6248734;23;20086;-72
2021/10/17 03:30:54;;;;;;;16.48;8.93;;;6.80;98.00;;;;;;6250492;23;20026;-71
2021/10/17 03:33:21;;;;;;;17.13;8.68;;;6.70;98.00;;;;;;6223272;23;20274;-71
2021/10/17 03:35:49;;;;;;;17.08;9.48;;;6.50;98.00;;;;;;6250380;23;20006;-71
2021/10/17 03:38:15;;;;;;;23.98;14.35;;;6.50;97.90;;;;;;6250145;23;20008;-70
2021/10/17 03:40:44;;;;;;;20.67;12.82;;;6.40;98.00;;;;;;6249999;23;20083;-71
2021/10/17 03:43:09;;;;;;;19.00;10.95;;;6.40;97.50;;;;;;6248836;23;20000;-71
2021/10/17 03:45:35;;;;;;;20.45;11.38;;;6.30;97.50;;;;;;6250139;23;20035;-71
2021/10/17 03:48:04;;;;;;;19.40;10.95;;;6.30;96.70;;;;;;6250118;23;20382;-70
2021/10/17 03:50:29;;;;;;;17.17;8.98;;;6.30;97.20;;;;;;6250633;23;20075;-69
2021/10/17 03:52:55;;;;;;;16.50;9.95;;;6.20;96.80;;;;;;6250757;23;20329;-72
2021/10/17 03:55:21;;;;;;;19.85;10.30;;;6.10;96.70;;;;;;6250081;23;19996;-72
2021/10/17 03:57:46;;;;;;;17.15;10.13;;;6.00;97.00;;;;;;6221871;23;20000;-72
2021/10/17 04:00:12;;;;;;;20.50;11.00;;;5.80;97.10;;;;;;6249716;23;20057;-71
2021/10/17 04:02:38;;;;;;;19.17;11.65;;;5.70;96.60;;;;;;6249056;23;20069;-71
2021/10/17 04:05:04;;;;;;;20.65;11.25;;;5.80;95.70;;;;;;6250239;23;20008;-71
2021/10/17 04:07:29;;;;;;;20.63;12.02;;;5.80;95.90;;;;;;6250152;23;20004;-71
2021/10/17 04:09:55;;;;;;;21.73;12.13;;;5.70;96.10;;;;;;6223650;23;20012;-71
2021/10/17 04:12:20;;;;;;;22.58;12.55;;;5.70;95.00;;;;;;6248017;23;20007;-71
2021/10/17 04:14:46;;;;;;;22.00;12.52;;;5.80;94.30;;;;;;6249594;23;20011;-71
2021/10/17 04:17:12;;;;;;;25.85;12.82;;;5.80;94.80;;;;;;6250233;23;20354;-71
2021/10/17 04:19:37;;;;;;;24.65;12.63;;;5.70;95.30;;;;;;6223155;23;20333;-71
2021/10/17 04:22:03;;;;;;;22.98;12.95;;;5.50;95.20;;;;;;6250007;23;20081;-71
2021/10/17 04:24:29;;;;;;;21.95;12.80;;;5.50;94.50;;;;;;6249737;23;20067;-71
2021/10/17 04:26:55;;;;;;;23.52;14.07;;;5.50;94.90;;;;;;6249818;23;20002;-72
2021/10/17 04:29:20;;;;;;;29.48;15.20;;;5.50;94.20;;;;;;6248149;23;20008;-70
2021/10/17 04:31:46;;;;;;;29.35;15.23;;;5.60;93.70;;;;;;6223610;23;20090;-71
2021/10/17 04:34:12;;;;;;;30.58;16.52;;;5.60;93.60;;;;;;6249039;23;20000;-70
2021/10/17 04:36:37;;;;;;;27.40;15.85;;;5.70;93.30;;;;;;6249451;23;20004;-72
2021/10/17 04:39:06;;;;;;;34.05;15.93;;;5.70;94.00;;;;;;6250056;23;20003;-72
2021/10/17 04:41:35;;;;;;;32.75;16.92;;;5.60;93.70;;;;;;6249244;23;20016;-71
2021/10/17 04:44:02;;;;;;;31.30;16.00;;;5.60;93.70;;;;;;6247909;23;20380;-70
2021/10/17 04:46:28;;;;;;;30.30;17.08;;;5.60;93.50;;;;;;6223316;23;20012;-71
2021/10/17 04:48:53;;;;;;;30.08;17.67;;;5.60;93.10;;;;;;6249296;23;19996;-70
2021/10/17 04:51:19;;;;;;;32.42;16.90;;;5.50;93.70;;;;;;6223437;23;20007;-71
2021/10/17 04:53:44;;;;;;;32.08;15.50;;;5.50;93.60;;;;;;6249276;23;20373;-71
2021/10/17 04:56:10;;;;;;;32.90;16.40;;;5.40;93.80;;;;;;6249774;23;20354;-72
2021/10/17 04:58:38;;;;;;;38.17;16.58;;;5.30;93.80;;;;;;6247865;23;19997;-71
2021/10/17 05:01:04;;;;;;;32.17;16.88;;;5.30;92.90;;;;;;6249508;23;20361;-71
2021/10/17 05:03:29;;;;;;;28.02;15.75;;;5.30;93.80;;;;;;6248552;23;20046;-70
2021/10/17 05:05:55;;;;;;;34.78;18.08;;;5.20;93.80;;;;;;6222781;23;20091;-73
2021/10/17 05:08:21;;;;;;;33.10;17.45;;;5.20;93.30;;;;;;6249725;23;20290;-70
2021/10/17 05:10:46;;;;;;;34.22;17.98;;;5.20;92.80;;;;;;6223032;23;20012;-71
2021/10/17 05:13:12;;;;;;;40.25;19.23;;;5.10;93.50;;;;;;6247758;23;20036;-71
2021/10/17 05:15:38;;;;;;;35.33;18.30;;;5.10;93.20;;;;;;6249721;23;20000;-72
2021/10/17 05:18:03;;;;;;;38.00;18.92;;;5.00;93.40;;;;;;6248868;23;20000;-71
2021/10/17 05:20:29;;;;;;;33.33;17.70;;;5.00;93.10;;;;;;6249764;23;20254;-71
2021/10/17 05:22:55;;;;;;;36.83;17.40;;;5.00;93.00;;;;;;6249137;23;20019;-71
2021/10/17 05:25:20;;;;;;;34.70;17.30;;;5.00;92.40;;;;;;6249055;23;20042;-71
2021/10/17 05:27:46;;;;;;;40.65;19.02;;;5.00;92.60;;;;;;6247764;23;20000;-71
2021/10/17 05:30:12;;;;;;;30.85;16.08;;;5.00;92.60;;;;;;6249152;23;20261;-71
2021/10/17 05:32:37;;;;;;;34.47;18.42;;;5.00;92.30;;;;;;6249014;23;20004;-71
2021/10/17 05:35:04;;;;;;;28.50;15.50;;;5.00;92.60;;;;;;6249537;23;20298;-72
2021/10/17 05:37:29;;;;;;;27.63;14.25;;;4.90;92.40;;;;;;6222463;23;19996;-70
2021/10/17 05:39:55;;;;;;;32.15;15.50;;;5.00;92.20;;;;;;6249231;23;20031;-71
2021/10/17 05:42:21;;;;;;;30.38;14.60;;;5.00;92.40;;;;;;6246980;23;20012;-71
2021/10/17 05:44:46;;;;;;;32.47;14.35;;;5.00;92.30;;;;;;6249240;23;20030;-71
2021/10/17 05:47:12;;;;;;;28.65;15.77;;;5.00;92.80;;;;;;6248870;23;20003;-71
2021/10/17 05:49:38;;;;;;;32.60;15.57;;;5.00;93.00;;;;;;6249312;23;19997;-70
2021/10/17 05:52:04;;;;;;;33.33;16.67;;;5.10;92.90;;;;;;6248993;23;20392;-70
2021/10/17 05:54:33;;;;;;;30.52;15.05;;;5.10;93.40;;;;;;6248988;23;20083;-71
2021/10/17 05:56:59;;;;;;;31.42;15.07;;;5.10;93.30;;;;;;6222640;23;20043;-74
2021/10/17 05:59:24;;;;;;;32.88;15.57;;;5.20;93.70;;;;;;6247545;23;20528;-71
2021/10/17 06:01:50;;;;;;;34.72;17.10;;;5.20;94.10;;;;;;6247779;23;20358;-71
2021/10/17 06:04:15;;;;;;;32.80;17.25;;;5.10;94.40;;;;;;6222714;23;20008;-71
2021/10/17 06:06:42;;;;;;;35.53;17.52;;;5.10;94.50;;;;;;6249028;23;20365;-72
2021/10/17 06:09:08;;;;;;;31.17;16.02;;;5.10;94.10;;;;;;6249215;23;20004;-71
2021/10/17 06:11:35;;;;;;;29.45;15.80;;;5.10;93.90;;;;;;6222377;23;20008;-70
2021/10/17 06:14:01;;;;;;;30.35;16.25;;;5.10;94.10;;;;;;6247289;23;20027;-71
2021/10/17 06:16:26;;;;;;;31.52;15.95;;;5.10;94.00;;;;;;6248723;23;20067;-71
2021/10/17 06:18:52;;;;;;;31.45;16.27;;;5.10;94.20;;;;;;6248583;23;20001;-71
2021/10/17 06:21:18;;;;;;;30.63;17.05;;;5.10;94.10;;;;;;6248976;23;19997;-71
2021/10/17 06:23:47;;;;;;;28.35;15.77;;;5.10;94.40;;;;;;6248718;23;20075;-71
2021/10/17 06:26:12;;;;;;;32.20;16.85;;;5.20;94.50;;;;;;6248599;23;20004;-71
2021/10/17 06:28:38;;;;;;;30.80;15.85;;;5.10;94.50;;;;;;6247514;23;20362;-71
2021/10/17 06:31:15;;;;;;;32.22;16.92;;;5.20;94.50;;;;;;6248990;23;20068;-69
2021/10/17 06:33:41;;;;;;;33.00;15.63;;;5.20;94.20;;;;;;6248246;23;20268;-70
2021/10/17 06:36:06;;;;;;;28.02;15.63;;;5.30;94.10;;;;;;6248965;23;20071;-69
2021/10/17 06:38:32;;;;;;;24.98;14.30;;;5.40;94.30;;;;;;6248187;23;20001;-70
2021/10/17 06:40:58;;;;;;;27.30;13.60;;;5.50;94.40;;;;;;6248630;23;20310;-69
2021/10/17 06:43:26;;;;;;;24.27;14.70;;;5.60;94.20;;;;;;6247363;23;20358;-69
2021/10/17 06:45:52;;;;;;;23.63;15.35;;;5.70;95.10;;;;;;6248832;23;20004;-69
2021/10/17 06:48:17;;;;;;;27.85;15.02;;;5.70;95.20;;;;;;6248381;23;20083;-71
2021/10/17 06:50:43;;;;;;;45.80;28.58;;;5.80;95.20;;;;;;6248634;23;20325;-72
2021/10/17 06:53:11;;;;;;;40.50;24.23;;;5.80;96.00;;;;;;6248584;23;20354;-72
2021/10/17 06:55:37;;;;;;;32.30;16.83;;;5.80;96.40;;;;;;6222432;23;20018;-71
2021/10/17 06:58:02;;;;;;;25.73;14.52;;;5.80;96.50;;;;;;6247541;23;20071;-71
2021/10/17 07:00:32;;;;;;;25.13;14.52;;;5.80;96.20;;;;;;6250155;23;20032;-71
2021/10/17 07:02:57;;;;;;;38.05;20.35;;;5.90;96.30;;;;;;6223330;23;20011;-71
2021/10/17 07:05:23;;;;;;;24.25;14.80;;;6.00;96.30;;;;;;6250618;23;20004;-71
2021/10/17 07:07:49;;;;;;;24.90;14.00;;;6.10;96.20;;;;;;6250212;23;20026;-71
2021/10/17 07:10:14;;;;;;;26.75;16.75;;;6.10;96.80;;;;;;6250533;23;20004;-71
2021/10/17 07:12:43;;;;;;;37.45;20.33;;;6.20;97.00;;;;;;6249070;23;20008;-71
2021/10/17 07:15:09;;;;;;;32.03;18.83;;;6.30;97.70;;;;;;6250471;23;20023;-71
2021/10/17 07:17:34;;;;;;;30.90;18.00;;;6.30;98.00;;;;;;6224075;23;20027;-71
2021/10/17 07:20:00;;;;;;;31.02;17.95;;;6.40;98.00;;;;;;6250551;23;20235;-70
2021/10/17 07:22:26;;;;;;;25.73;16.02;;;6.40;98.00;;;;;;6249987;23;20004;-70
2021/10/17 07:24:51;;;;;;;27.63;14.68;;;6.40;98.00;;;;;;6250423;23;20261;-71
2021/10/17 07:27:17;;;;;;;24.33;14.43;;;6.50;98.00;;;;;;6248682;23;20080;-71
2021/10/17 07:29:43;;;;;;;25.85;14.35;;;6.60;98.00;;;;;;6249957;23;20080;-71
2021/10/17 07:32:09;;;;;;;21.88;13.32;;;6.80;98.00;;;;;;6222934;23;20415;-69
2021/10/17 07:34:36;;;;;;;28.17;15.90;;;6.70;98.00;;;;;;6250071;23;20012;-70
2021/10/17 07:37:01;;;;;;;37.40;19.05;;;6.80;98.00;;;;;;6250408;23;20035;-71
2021/10/17 07:39:27;;;;;;;33.92;17.27;;;6.80;98.00;;;;;;6250016;23;20003;-70
2021/10/17 07:41:53;;;;;;;23.27;15.05;;;6.70;98.00;;;;;;6249317;23;20012;-70
2021/10/17 07:44:19;;;;;;;24.63;14.55;;;6.70;98.00;;;;;;6247545;23;20028;-69
2021/10/17 07:46:45;;;;;;;29.58;16.42;;;6.70;98.00;;;;;;6250503;23;20058;-69
2021/10/17 07:49:10;;;;;;;32.25;18.48;;;6.80;98.00;;;;;;6248889;23;20006;-70
2021/10/17 07:51:36;;;;;;;31.63;16.70;;;6.90;98.00;;;;;;6249835;23;20000;-69
2021/10/17 07:54:02;;;;;;;23.52;15.50;;;7.10;98.00;;;;;;6250349;23;20047;-70
2021/10/17 07:56:27;;;;;;;20.55;13.80;;;7.40;98.00;;;;;;6249984;23;20018;-71
2021/10/17 07:58:53;;;;;;;19.23;12.40;;;7.90;98.00;;;;;;6248337;23;20007;-71
2021/10/17 08:01:19;;;;;;;19.17;11.68;;;8.80;98.00;;;;;;6250275;23;20076;-70
2021/10/17 08:03:45;;;;;;;28.40;12.23;;;10.20;98.00;;;;;;6250179;23;20008;-72
2021/10/17 08:06:11;;;;;;;16.83;10.68;;;10.90;95.90;;;;;;6250119;23;20262;-70
2021/10/17 08:08:36;;;;;;;18.88;11.57;;;11.50;95.50;;;;;;6249499;23;20004;-70
2021/10/17 08:11:02;;;;;;;14.93;9.32;;;12.40;92.30;;;;;;6249301;23;20007;-70
2021/10/17 08:13:29;;;;;;;15.07;9.05;;;13.50;86.90;;;;;;6248094;23;20000;-69
2021/10/17 08:15:55;;;;;;;17.77;10.45;;;14.30;85.10;;;;;;6249409;23;20003;-70
2021/10/17 08:18:22;;;;;;;14.18;9.18;;;14.50;83.50;;;;;;6249509;23;20028;-71
2021/10/17 08:20:48;;;;;;;17.15;10.63;;;14.40;83.80;;;;;;6249290;23;20007;-71
2021/10/17 08:23:15;;;;;;;14.50;9.70;;;15.10;81.20;;;;;;6249481;23;20270;-71
2021/10/17 08:25:40;;;;;;;15.68;9.45;;;15.50;80.90;;;;;;6249632;23;20015;-69
2021/10/17 08:28:10;;;;;;;17.02;9.35;;;15.70;79.40;;;;;;6248108;23;20008;-70
2021/10/17 08:30:35;;;;;;;13.93;9.68;;;15.80;78.50;;;;;;6249000;23;20011;-71
2021/10/17 08:33:01;;;;;;;14.93;9.95;;;16.10;77.90;;;;;;6221892;23;20381;-70
2021/10/17 08:35:26;;;;;;;14.07;9.52;;;15.90;78.00;;;;;;6249264;23;20008;-70
2021/10/17 08:37:52;;;;;;;12.43;8.95;;;15.90;78.50;;;;;;6249917;23;20075;-71
2021/10/17 08:40:18;;;;;;;15.23;9.23;;;15.70;78.60;;;;;;6249334;23;20028;-73
2021/10/17 08:42:44;;;;;;;15.65;10.00;;;15.90;78.50;;;;;;6248399;23;20004;-71
2021/10/17 08:45:10;;;;;;;13.93;9.70;;;15.60;79.10;;;;;;6248717;23;20022;-70
2021/10/17 08:47:36;;;;;;;16.17;9.57;;;15.60;79.80;;;;;;6247133;23;20003;-71
2021/10/17 08:50:03;;;;;;;14.48;9.82;;;15.40;79.90;;;;;;6246742;23;19997;-70
2021/10/17 08:52:29;;;;;;;13.93;10.10;;;16.20;78.50;;;;;;6247091;23;20313;-71
2021/10/17 08:54:55;;;;;;;13.85;9.20;;;16.80;77.10;;;;;;6247268;23;20000;-70
2021/10/17 08:57:21;;;;;;;15.38;9.95;;;16.80;76.40;;;;;;6244234;23;20005;-71
2021/10/17 08:59:48;;;;;;;14.23;9.88;;;17.10;76.00;;;;;;6246623;23;20050;-71
2021/10/17 09:02:20;;;;;;;14.85;9.45;;;17.40;74.30;;;;;;6246501;23;19996;-73
2021/10/17 09:05:07;;;;;;;14.30;9.68;;;17.10;75.20;;;;;;6245287;23;20036;-70
2021/10/17 09:07:33;;;;;;;19.45;10.52;;;17.40;74.60;;;;;;6246654;23;20361;-71
2021/10/17 09:10:16;;;;;;;15.45;8.50;;;17.20;75.90;;;;;;6247100;23;20004;-71
2021/10/17 09:12:44;;;;;;;13.15;8.63;;;16.90;76.60;;;;;;6245925;23;20004;-71
2021/10/17 09:15:20;;;;;;;14.35;7.95;;;16.80;77.30;;;;;;6248689;23;20008;-71
2021/10/17 09:18:06;;;;;;;12.57;8.43;;;16.40;77.90;;;;;;6249369;23;20023;-71
2021/10/17 09:20:51;;;;;;;11.13;7.53;;;16.20;79.30;;;;;;6249121;23;20008;-69
2021/10/17 09:23:39;;;;;;;13.35;8.38;;;15.90;81.00;;;;;;6247988;23;20011;-70
2021/10/17 09:26:13;;;;;;;12.98;8.23;;;15.70;80.70;;;;;;6248039;23;20000;-70
2021/10/17 09:28:39;;;;;;;;;;;15.60;81.10;;;;;;6248859;23;20079;-70
2021/10/17 09:31:12;;;;;;;15.00;9.98;;;15.60;81.70;;;;;;6248227;23;19934;-70
2021/10/17 09:33:53;;;;;;;20.77;9.27;;;16.10;81.30;;;;;;6247864;23;20361;-69
2021/10/17 09:36:22;;;;;;;14.73;8.23;;;16.20;79.50;;;;;;6248164;23;20357;-70
2021/10/17 09:38:55;;;;;;;15.18;8.30;;;15.40;82.40;;;;;;6249025;23;20066;-69
2021/10/17 09:41:24;;;;;;;12.70;8.02;;;15.70;81.60;;;;;;6248042;23;20103;-71
2021/10/17 09:43:55;;;;;;;13.15;8.20;;;15.60;82.20;;;;;;6247672;23;20384;-71
2021/10/17 09:46:21;;;;;;;12.38;8.32;;;16.00;80.60;;;;;;6248334;23;20031;-70
2021/10/17 09:48:47;;;;;;;15.07;9.13;;;16.30;79.60;;;;;;6247754;23;20010;-71
2021/10/17 09:51:15;;;;;;;14.27;9.02;;;16.60;80.20;;;;;;6247836;23;20357;-71
2021/10/17 09:53:50;;;;;;;15.60;8.32;;;16.80;79.50;;;;;;6249171;23;20004;-71
2021/10/17 09:56:30;;;;;;;12.95;8.60;;;17.00;78.10;;;;;;6248920;23;20012;-71
2021/10/17 09:59:01;;;;;;;14.45;8.85;;;16.90;79.20;;;;;;6247672;23;19996;-70
2021/10/17 10:01:27;;;;;;;14.63;8.73;;;16.50;78.90;;;;;;6247679;23;20027;-70
2021/10/17 10:03:57;;;;;;;12.77;8.70;;;16.40;80.40;;;;;;6248843;23;20369;-74
2021/10/17 10:06:23;;;;;;;13.68;8.77;;;16.60;79.60;;;;;;6249311;23;19996;-71
2021/10/17 10:09:01;;;;;;;15.23;9.13;;;16.80;79.50;;;;;;6247724;23;20079;-70
2021/10/17 10:11:28;;;;;;;12.48;8.88;;;17.10;78.30;;;;;;6248757;23;20035;-71
2021/10/17 10:14:00;;;;;;;13.52;7.82;;;17.30;78.90;;;;;;6221012;23;20027;-70
2021/10/17 10:16:27;;;;;;;13.30;8.63;;;17.50;77.90;;;;;;6247610;23;20009;-71
2021/10/17 10:18:58;;;;;;;12.75;8.95;;;17.60;77.50;;;;;;6248774;23;20007;-71
2021/10/17 10:21:24;;;;;;;15.75;8.93;;;17.10;78.10;;;;;;6248296;23;20000;-70
2021/10/17 10:23:53;;;;;;;13.95;9.00;;;16.70;79.30;;;;;;6245358;23;20000;-70
2021/10/17 10:26:26;;;;;;;13.30;8.90;;;16.40;80.00;;;;;;6247594;23;20028;-71
2021/10/17 10:28:53;;;;;;;15.93;9.23;;;16.60;80.00;;;;;;6242629;23;20000;-70
2021/10/17 10:31:52;;;;;;;13.57;9.25;;;16.10;80.70;;;;;;6216168;23;20358;-70
2021/10/17 10:34:23;;;;;;;14.15;10.32;;;15.90;81.70;;;;;;6246683;23;20366;-69
2021/10/17 10:36:51;;;;;;;14.63;10.13;;;16.00;80.80;;;;;;6246127;23;20031;-70
2021/10/17 10:39:24;;;;;;;12.57;9.25;;;15.80;82.70;;;;;;6248794;23;19996;-70
2021/10/17 10:42:03;;;;;;;13.98;9.27;;;16.20;81.50;;;;;;6198299;23;20409;-70
2021/10/17 10:44:32;;;;;;;15.05;9.23;;;16.10;81.20;;;;;;6186942;23;20004;-70
2021/10/17 10:47:15;;;;;;;16.08;10.40;;;16.30;81.40;;;;;;6189076;23;20010;-70
2021/10/17 10:49:52;;;;;;;13.40;9.30;;;16.50;80.20;;;;;;6186352;23;20008;-71
2021/10/17 10:52:23;;;;;;;16.52;10.50;;;16.50;81.50;;;;;;6187611;23;20000;-70
2021/10/17 10:54:49;;;;;;;12.82;9.40;;;16.30;81.10;;;;;;6185017;23;20005;-70
2021/10/17 10:57:21;;;;;;;17.02;10.15;;;16.30;81.10;;;;;;6184866;23;20009;-70
2021/10/17 11:00:01;;;;;;;14.50;9.73;;;16.30;81.20;;;;;;6186251;23;20005;-71
2021/10/17 11:02:28;;;;;;;14.50;10.15;;;16.50;81.20;;;;;;6189282;23;20064;-71
2021/10/17 11:04:54;;;;;;;14.57;10.57;;;16.50;81.10;;;;;;6187369;23;20016;-71
2021/10/17 11:07:33;;;;;;;13.05;9.70;;;16.30;80.30;;;;;;6190912;23;20005;-71
2021/10/17 11:10:25;;;;;;;12.25;9.23;;;16.30;81.60;;;;;;6190466;23;20266;-71
2021/10/17 11:12:55;;;;;;;14.02;9.60;;;17.10;79.80;;;;;;6188637;23;20020;-71
2021/10/17 11:15:32;;;;;;;14.45;10.20;;;17.00;79.20;;;;;;6189422;23;20016;-71
2021/10/17 11:18:00;;;;;;;13.63;9.10;;;17.50;78.30;;;;;;6189081;23;20007;-71
2021/10/17 11:20:41;;;;;;;15.32;10.25;;;17.60;79.00;;;;;;6189938;23;20008;-71
2021/10/17 11:23:21;;;;;;;16.65;10.52;;;17.40;77.50;;;;;;6189500;23;20008;-71
2021/10/17 11:25:58;;;;;;;14.88;9.95;;;16.80;79.70;;;;;;6186433;23;20051;-71
2021/10/17 11:28:29;;;;;;;15.35;10.02;;;16.60;80.50;;;;;;6188019;23;20005;-70
2021/10/17 11:31:09;;;;;;;15.70;9.90;;;16.80;80.30;;;;;;6181790;23;20009;-71
2021/10/17 11:33:37;;;;;;;14.45;9.80;;;16.50;80.50;;;;;;6185358;23;20005;-71
2021/10/17 11:36:03;;;;;;;15.30;10.10;;;16.60;81.10;;;;;;6190240;23;20001;-72
2021/10/17 11:38:29;;;;;;;16.52;10.68;;;16.80;80.20;;;;;;6190369;23;20030;-70
2021/10/17 11:41:04;;;;;;;15.23;10.55;;;16.80;79.40;;;;;;6205787;23;20016;-71
2021/10/17 11:43:56;;;;;;;15.68;10.35;;;16.60;80.20;;;;;;6248834;23;20251;-70
2021/10/17 11:46:30;;;;;;;16.02;10.27;;;16.80;79.70;;;;;;6219039;23;20004;-71
2021/10/17 11:48:58;;;;;;;14.85;9.88;;;16.90;79.80;;;;;;6250339;23;20361;-70
2021/10/17 11:51:27;;;;;;;15.90;11.02;;;17.20;78.90;;;;;;6249875;23;20270;-70
2021/10/17 11:53:57;;;;;;;15.35;10.85;;;17.10;79.30;;;;;;6250257;23;20010;-71
2021/10/17 11:56:23;;;;;;;15.15;10.23;;;17.00;79.40;;;;;;6250202;23;19996;-71
2021/10/17 11:58:51;;;;;;;17.05;10.73;;;17.10;80.00;;;;;;6244815;23;19996;-71
2021/10/17 12:01:18;;;;;;;15.90;10.32;;;17.10;78.50;;;;;;6223434;23;20000;-71
2021/10/17 12:03:56;;;;;;;15.00;10.95;;;17.10;80.30;;;;;;6250855;23;20266;-71
2021/10/17 12:06:25;;;;;;;15.05;11.00;;;17.90;79.50;;;;;;6250017;23;20243;-71
2021/10/17 12:08:56;;;;;;;15.85;10.68;;;17.90;77.20;;;;;;6250691;23;20032;-71
2021/10/17 12:11:23;;;;;;;15.93;10.65;;;17.60;78.40;;;;;;6250390;23;20027;-70
2021/10/17 12:13:54;;;;;;;17.55;10.48;;;17.60;79.20;;;;;;6248734;23;20057;-70
2021/10/17 12:16:22;;;;;;;16.95;10.15;;;17.80;78.50;;;;;;6250120;23;20075;-71
2021/10/17 12:18:52;;;;;;;14.95;10.75;;;18.30;78.30;;;;;;6249640;23;20028;-71
2021/10/17 12:21:21;;;;;;;15.23;10.85;;;18.50;76.70;;;;;;6248444;23;20000;-71
2021/10/17 12:23:48;;;;;;;15.93;9.82;;;17.80;77.40;;;;;;6249548;23;20011;-69
2021/10/17 12:26:22;;;;;;;14.15;9.63;;;17.50;79.60;;;;;;6249549;23;20000;-69
2021/10/17 12:29:14;;;;;;;16.00;10.13;;;18.00;78.90;;;;;;6245154;23;20000;-70
2021/10/17 12:31:45;;;;;;;16.02;10.60;;;18.20;78.30;;;;;;6241883;23;20015;-69
2021/10/17 12:34:12;;;;;;;14.93;9.98;;;18.20;78.40;;;;;;6248961;23;20028;-68
2021/10/17 12:36:41;;;;;;;12.75;9.27;;;18.00;78.10;;;;;;6249495;23;20071;-71
2021/10/17 12:39:14;;;;;;;13.95;9.38;;;18.10;78.50;;;;;;6222781;23;20087;-71